sensor_id;sensor_type;location;lat;lon;timestamp;P1;durP1;ratioP1;P2;durP2;ratioP2
27025;SDS011;14565;48.626;8.978;2023-05-10T00:01:23;2.35;;;1.90;;
27025;SDS011;14565;48.626;8.978;2023-05-10T00:03:49;2.97;;;2.42;;
27025;SDS011;14565;48.626;8.978;2023-05-10T00:06:14;2.53;;;2.15;;
27025;SDS011;14565;48.626;8.978;2023-05-10T00:08:40;4.30;;;1.98;;
27025;SDS011;14565;48.626;8.978;2023-05-10T00:11:06;4.45;;;1.65;;
27025;SDS011;14565;48.626;8.978;2023-05-10T00:13:31;3.65;;;1.60;;
27025;SDS011;14565;48.626;8.978;2023-05-10T00:15:58;2.28;;;1.30;;
27025;SDS011;14565;48.626;8.978;2023-05-10T00:18:23;1.40;;;1.00;;
27025;SDS011;14565;48.626;8.978;2023-05-10T00:20:49;0.93;;;0.82;;
27025;SDS011;14565;48.626;8.978;2023-05-10T00:23:14;0.85;;;0.70;;
27025;SDS011;14565;48.626;8.978;2023-05-10T00:25:40;0.77;;;0.68;;
27025;SDS011;14565;48.626;8.978;2023-05-10T00:28:06;1.90;;;0.70;;
27025;SDS011;14565;48.626;8.978;2023-05-10T00:30:31;3.00;;;1.00;;
27025;SDS011;14565;48.626;8.978;2023-05-10T00:32:57;2.72;;;0.85;;
27025;SDS011;14565;48.626;8.978;2023-05-10T00:35:23;3.35;;;0.77;;
27025;SDS011;14565;48.626;8.978;2023-05-10T00:37:48;0.73;;;0.70;;
27025;SDS011;14565;48.626;8.978;2023-05-10T00:40:14;1.83;;;0.90;;
27025;SDS011;14565;48.626;8.978;2023-05-10T00:42:40;1.88;;;0.88;;
27025;SDS011;14565;48.626;8.978;2023-05-10T00:45:06;0.70;;;0.60;;
27025;SDS011;14565;48.626;8.978;2023-05-10T00:47:32;1.02;;;0.70;;
27025;SDS011;14565;48.626;8.978;2023-05-10T00:49:58;1.02;;;0.60;;
27025;SDS011;14565;48.626;8.978;2023-05-10T00:52:25;4.25;;;0.60;;
27025;SDS011;14565;48.626;8.978;2023-05-10T00:54:52;1.08;;;0.50;;
27025;SDS011;14565;48.626;8.978;2023-05-10T00:57:18;0.60;;;0.60;;
27025;SDS011;14565;48.626;8.978;2023-05-10T00:59:44;1.27;;;0.70;;
27025;SDS011;14565;48.626;8.978;2023-05-10T01:02:10;0.73;;;0.60;;
27025;SDS011;14565;48.626;8.978;2023-05-10T01:04:36;0.70;;;0.60;;
27025;SDS011;14565;48.626;8.978;2023-05-10T01:07:03;0.50;;;0.50;;
27025;SDS011;14565;48.626;8.978;2023-05-10T01:09:29;0.70;;;0.63;;
27025;SDS011;14565;48.626;8.978;2023-05-10T01:11:55;0.60;;;0.60;;
27025;SDS011;14565;48.626;8.978;2023-05-10T01:14:21;1.15;;;0.70;;
27025;SDS011;14565;48.626;8.978;2023-05-10T01:16:47;1.65;;;0.60;;
27025;SDS011;14565;48.626;8.978;2023-05-10T01:38:49;2.65;;;0.50;;
27025;SDS011;14565;48.626;8.978;2023-05-10T01:46:34;1.80;;;0.50;;
27025;SDS011;14565;48.626;8.978;2023-05-10T01:51:36;0.50;;;0.50;;
27025;SDS011;14565;48.626;8.978;2023-05-10T01:54:14;1.95;;;0.70;;
27025;SDS011;14565;48.626;8.978;2023-05-10T01:56:42;0.70;;;0.70;;
27025;SDS011;14565;48.626;8.978;2023-05-10T01:59:15;1.40;;;0.70;;
27025;SDS011;14565;48.626;8.978;2023-05-10T02:01:43;0.82;;;0.80;;
27025;SDS011;14565;48.626;8.978;2023-05-10T02:04:11;1.88;;;1.05;;
27025;SDS011;14565;48.626;8.978;2023-05-10T02:06:40;0.93;;;0.80;;
27025;SDS011;14565;48.626;8.978;2023-05-10T02:09:07;1.20;;;0.70;;
27025;SDS011;14565;48.626;8.978;2023-05-10T02:14:02;1.08;;;0.98;;
27025;SDS011;14565;48.626;8.978;2023-05-10T02:16:30;1.58;;;1.10;;
27025;SDS011;14565;48.626;8.978;2023-05-10T02:18:56;1.40;;;1.17;;
27025;SDS011;14565;48.626;8.978;2023-05-10T02:21:24;5.73;;;1.83;;
27025;SDS011;14565;48.626;8.978;2023-05-10T02:23:51;2.22;;;1.98;;
27025;SDS011;14565;48.626;8.978;2023-05-10T02:26:18;2.17;;;1.73;;
27025;SDS011;14565;48.626;8.978;2023-05-10T02:28:47;1.02;;;0.93;;
27025;SDS011;14565;48.626;8.978;2023-05-10T02:31:14;3.38;;;1.10;;
27025;SDS011;14565;48.626;8.978;2023-05-10T02:33:40;2.80;;;1.00;;
27025;SDS011;14565;48.626;8.978;2023-05-10T02:36:08;4.45;;;1.65;;
27025;SDS011;14565;48.626;8.978;2023-05-10T02:38:35;2.90;;;2.00;;
27025;SDS011;14565;48.626;8.978;2023-05-10T02:41:01;3.50;;;2.55;;
27025;SDS011;14565;48.626;8.978;2023-05-10T02:43:29;4.95;;;4.28;;
27025;SDS011;14565;48.626;8.978;2023-05-10T02:45:57;6.18;;;4.70;;
27025;SDS011;14565;48.626;8.978;2023-05-10T02:48:22;4.40;;;3.70;;
27025;SDS011;14565;48.626;8.978;2023-05-10T02:50:48;2.10;;;1.83;;
27025;SDS011;14565;48.626;8.978;2023-05-10T02:53:18;2.88;;;1.48;;
27025;SDS011;14565;48.626;8.978;2023-05-10T02:55:49;1.92;;;1.20;;
27025;SDS011;14565;48.626;8.978;2023-05-10T02:58:16;1.67;;;0.98;;
27025;SDS011;14565;48.626;8.978;2023-05-10T03:00:44;2.55;;;1.05;;
27025;SDS011;14565;48.626;8.978;2023-05-10T03:03:10;1.50;;;1.10;;
27025;SDS011;14565;48.626;8.978;2023-05-10T03:05:36;2.40;;;1.17;;
27025;SDS011;14565;48.626;8.978;2023-05-10T03:08:01;6.13;;;1.30;;
27025;SDS011;14565;48.626;8.978;2023-05-10T03:10:29;2.50;;;1.20;;
27025;SDS011;14565;48.626;8.978;2023-05-10T03:13:16;1.67;;;1.25;;
27025;SDS011;14565;48.626;8.978;2023-05-10T03:18:23;2.00;;;1.38;;
27025;SDS011;14565;48.626;8.978;2023-05-10T03:21:01;2.40;;;1.67;;
27025;SDS011;14565;48.626;8.978;2023-05-10T03:23:35;4.18;;;1.63;;
27025;SDS011;14565;48.626;8.978;2023-05-10T03:26:07;2.58;;;1.85;;
27025;SDS011;14565;48.626;8.978;2023-05-10T03:28:34;2.65;;;1.30;;
27025;SDS011;14565;48.626;8.978;2023-05-10T03:31:00;2.10;;;1.30;;
27025;SDS011;14565;48.626;8.978;2023-05-10T03:33:27;5.80;;;1.42;;
27025;SDS011;14565;48.626;8.978;2023-05-10T03:35:54;5.57;;;1.80;;
27025;SDS011;14565;48.626;8.978;2023-05-10T03:38:20;4.32;;;1.40;;
27025;SDS011;14565;48.626;8.978;2023-05-10T03:40:45;3.10;;;1.80;;
27025;SDS011;14565;48.626;8.978;2023-05-10T03:43:11;2.55;;;1.60;;
27025;SDS011;14565;48.626;8.978;2023-05-10T03:45:36;3.25;;;2.00;;
27025;SDS011;14565;48.626;8.978;2023-05-10T03:48:02;3.13;;;1.92;;
27025;SDS011;14565;48.626;8.978;2023-05-10T03:50:28;2.35;;;1.55;;
27025;SDS011;14565;48.626;8.978;2023-05-10T03:52:54;2.17;;;1.55;;
27025;SDS011;14565;48.626;8.978;2023-05-10T03:55:20;2.30;;;1.60;;
27025;SDS011;14565;48.626;8.978;2023-05-10T03:57:46;2.42;;;1.60;;
27025;SDS011;14565;48.626;8.978;2023-05-10T04:00:14;2.83;;;1.70;;
27025;SDS011;14565;48.626;8.978;2023-05-10T04:02:40;2.88;;;1.70;;
27025;SDS011;14565;48.626;8.978;2023-05-10T04:05:06;2.47;;;1.73;;
27025;SDS011;14565;48.626;8.978;2023-05-10T04:07:32;4.55;;;1.90;;
27025;SDS011;14565;48.626;8.978;2023-05-10T04:09:57;2.88;;;1.63;;
27025;SDS011;14565;48.626;8.978;2023-05-10T04:12:23;2.90;;;2.10;;
27025;SDS011;14565;48.626;8.978;2023-05-10T04:14:49;2.80;;;1.90;;
27025;SDS011;14565;48.626;8.978;2023-05-10T04:17:14;4.93;;;1.73;;
27025;SDS011;14565;48.626;8.978;2023-05-10T04:19:40;3.58;;;1.90;;
27025;SDS011;14565;48.626;8.978;2023-05-10T04:22:05;4.25;;;2.00;;
27025;SDS011;14565;48.626;8.978;2023-05-10T04:24:31;3.00;;;1.88;;
27025;SDS011;14565;48.626;8.978;2023-05-10T04:26:57;2.17;;;1.70;;
27025;SDS011;14565;48.626;8.978;2023-05-10T04:29:22;3.28;;;2.20;;
27025;SDS011;14565;48.626;8.978;2023-05-10T04:31:48;4.35;;;2.00;;
27025;SDS011;14565;48.626;8.978;2023-05-10T04:34:13;2.85;;;2.10;;
27025;SDS011;14565;48.626;8.978;2023-05-10T04:36:39;5.45;;;2.30;;
27025;SDS011;14565;48.626;8.978;2023-05-10T04:39:05;3.60;;;2.13;;
27025;SDS011;14565;48.626;8.978;2023-05-10T04:41:31;2.92;;;1.92;;
27025;SDS011;14565;48.626;8.978;2023-05-10T04:43:56;4.05;;;2.15;;
27025;SDS011;14565;48.626;8.978;2023-05-10T04:46:22;3.42;;;2.10;;
27025;SDS011;14565;48.626;8.978;2023-05-10T04:48:48;3.90;;;1.90;;
27025;SDS011;14565;48.626;8.978;2023-05-10T04:51:16;7.35;;;2.08;;
27025;SDS011;14565;48.626;8.978;2023-05-10T04:53:41;3.25;;;2.08;;
27025;SDS011;14565;48.626;8.978;2023-05-10T04:56:07;2.88;;;2.05;;
27025;SDS011;14565;48.626;8.978;2023-05-10T04:58:33;5.93;;;2.30;;
27025;SDS011;14565;48.626;8.978;2023-05-10T05:01:04;7.18;;;2.15;;
27025;SDS011;14565;48.626;8.978;2023-05-10T05:03:32;3.25;;;2.50;;
27025;SDS011;14565;48.626;8.978;2023-05-10T05:05:58;5.95;;;2.70;;
27025;SDS011;14565;48.626;8.978;2023-05-10T05:08:24;3.08;;;2.78;;
27025;SDS011;14565;48.626;8.978;2023-05-10T05:10:49;2.58;;;2.38;;
27025;SDS011;14565;48.626;8.978;2023-05-10T05:13:15;5.38;;;2.45;;
27025;SDS011;14565;48.626;8.978;2023-05-10T05:15:41;4.85;;;2.45;;
27025;SDS011;14565;48.626;8.978;2023-05-10T05:18:06;5.55;;;2.70;;
27025;SDS011;14565;48.626;8.978;2023-05-10T05:20:32;4.07;;;2.75;;
27025;SDS011;14565;48.626;8.978;2023-05-10T05:23:01;3.38;;;2.38;;
27025;SDS011;14565;48.626;8.978;2023-05-10T05:25:27;5.45;;;2.60;;
27025;SDS011;14565;48.626;8.978;2023-05-10T05:27:53;3.90;;;2.33;;
27025;SDS011;14565;48.626;8.978;2023-05-10T05:30:18;3.15;;;2.80;;
27025;SDS011;14565;48.626;8.978;2023-05-10T05:32:44;5.72;;;2.30;;
27025;SDS011;14565;48.626;8.978;2023-05-10T05:35:12;3.10;;;2.40;;
27025;SDS011;14565;48.626;8.978;2023-05-10T05:37:37;7.22;;;2.92;;
27025;SDS011;14565;48.626;8.978;2023-05-10T05:40:03;3.17;;;2.63;;
27025;SDS011;14565;48.626;8.978;2023-05-10T05:42:30;4.20;;;2.38;;
27025;SDS011;14565;48.626;8.978;2023-05-10T05:44:56;4.07;;;2.45;;
27025;SDS011;14565;48.626;8.978;2023-05-10T05:47:22;3.40;;;2.30;;
27025;SDS011;14565;48.626;8.978;2023-05-10T05:49:48;4.45;;;2.38;;
27025;SDS011;14565;48.626;8.978;2023-05-10T05:52:17;4.45;;;2.38;;
27025;SDS011;14565;48.626;8.978;2023-05-10T05:54:42;5.82;;;2.45;;
27025;SDS011;14565;48.626;8.978;2023-05-10T05:57:08;5.10;;;2.28;;
27025;SDS011;14565;48.626;8.978;2023-05-10T05:59:34;5.35;;;1.95;;
27025;SDS011;14565;48.626;8.978;2023-05-10T06:02:00;2.88;;;2.00;;
27025;SDS011;14565;48.626;8.978;2023-05-10T06:04:25;3.42;;;1.60;;
27025;SDS011;14565;48.626;8.978;2023-05-10T06:06:51;1.50;;;1.40;;
27025;SDS011;14565;48.626;8.978;2023-05-10T06:09:17;2.25;;;1.50;;
27025;SDS011;14565;48.626;8.978;2023-05-10T06:11:42;1.85;;;1.55;;
27025;SDS011;14565;48.626;8.978;2023-05-10T06:14:08;1.98;;;1.45;;
27025;SDS011;14565;48.626;8.978;2023-05-10T06:16:34;5.03;;;1.50;;
27025;SDS011;14565;48.626;8.978;2023-05-10T06:19:00;2.88;;;1.45;;
27025;SDS011;14565;48.626;8.978;2023-05-10T06:21:25;2.00;;;1.33;;
27025;SDS011;14565;48.626;8.978;2023-05-10T06:23:51;1.60;;;1.27;;
27025;SDS011;14565;48.626;8.978;2023-05-10T06:26:17;1.55;;;1.20;;
27025;SDS011;14565;48.626;8.978;2023-05-10T06:28:42;1.70;;;1.15;;
27025;SDS011;14565;48.626;8.978;2023-05-10T06:31:08;1.33;;;1.10;;
27025;SDS011;14565;48.626;8.978;2023-05-10T06:33:34;5.18;;;1.10;;
27025;SDS011;14565;48.626;8.978;2023-05-10T06:36:00;1.92;;;1.10;;
27025;SDS011;14565;48.626;8.978;2023-05-10T06:38:25;1.45;;;0.98;;
27025;SDS011;14565;48.626;8.978;2023-05-10T06:40:51;1.25;;;1.00;;
27025;SDS011;14565;48.626;8.978;2023-05-10T06:43:17;2.05;;;1.02;;
27025;SDS011;14565;48.626;8.978;2023-05-10T06:45:42;2.22;;;1.08;;
27025;SDS011;14565;48.626;8.978;2023-05-10T06:48:08;1.45;;;0.98;;
27025;SDS011;14565;48.626;8.978;2023-05-10T06:50:34;1.95;;;1.30;;
27025;SDS011;14565;48.626;8.978;2023-05-10T06:53:00;2.20;;;1.08;;
27025;SDS011;14565;48.626;8.978;2023-05-10T06:55:27;1.70;;;1.20;;
27025;SDS011;14565;48.626;8.978;2023-05-10T06:57:53;3.92;;;1.17;;
27025;SDS011;14565;48.626;8.978;2023-05-10T07:00:19;2.90;;;1.00;;
27025;SDS011;14565;48.626;8.978;2023-05-10T07:02:45;2.08;;;1.23;;
27025;SDS011;14565;48.626;8.978;2023-05-10T07:05:11;2.30;;;1.20;;
27025;SDS011;14565;48.626;8.978;2023-05-10T07:07:37;3.85;;;1.10;;
27025;SDS011;14565;48.626;8.978;2023-05-10T07:10:03;5.22;;;1.00;;
27025;SDS011;14565;48.626;8.978;2023-05-10T07:12:30;2.20;;;1.20;;
27025;SDS011;14565;48.626;8.978;2023-05-10T07:14:56;1.52;;;0.90;;
27025;SDS011;14565;48.626;8.978;2023-05-10T07:17:22;2.60;;;0.90;;
27025;SDS011;14565;48.626;8.978;2023-05-10T07:19:47;3.05;;;0.88;;
27025;SDS011;14565;48.626;8.978;2023-05-10T07:22:13;2.50;;;0.70;;
27025;SDS011;14565;48.626;8.978;2023-05-10T07:24:40;5.05;;;0.73;;
27025;SDS011;14565;48.626;8.978;2023-05-10T07:27:06;2.80;;;1.08;;
27025;SDS011;14565;48.626;8.978;2023-05-10T07:29:32;2.25;;;0.80;;
27025;SDS011;14565;48.626;8.978;2023-05-10T07:31:57;0.77;;;0.55;;
27025;SDS011;14565;48.626;8.978;2023-05-10T07:34:23;2.72;;;0.50;;
27025;SDS011;14565;48.626;8.978;2023-05-10T07:36:49;0.50;;;0.50;;
27025;SDS011;14565;48.626;8.978;2023-05-10T07:39:15;1.02;;;0.52;;
27025;SDS011;14565;48.626;8.978;2023-05-10T07:41:41;1.42;;;0.60;;
27025;SDS011;14565;48.626;8.978;2023-05-10T07:44:07;2.53;;;0.77;;
27025;SDS011;14565;48.626;8.978;2023-05-10T07:46:33;1.33;;;0.50;;
27025;SDS011;14565;48.626;8.978;2023-05-10T07:48:58;1.35;;;0.60;;
27025;SDS011;14565;48.626;8.978;2023-05-10T07:51:24;0.55;;;0.50;;
27025;SDS011;14565;48.626;8.978;2023-05-10T07:53:49;0.60;;;0.50;;
27025;SDS011;14565;48.626;8.978;2023-05-10T07:58:47;3.13;;;0.60;;
27025;SDS011;14565;48.626;8.978;2023-05-10T08:01:13;4.32;;;0.80;;
27025;SDS011;14565;48.626;8.978;2023-05-10T08:03:38;4.05;;;0.70;;
27025;SDS011;14565;48.626;8.978;2023-05-10T08:06:04;1.95;;;0.60;;
27025;SDS011;14565;48.626;8.978;2023-05-10T08:08:30;3.08;;;0.50;;
27025;SDS011;14565;48.626;8.978;2023-05-10T08:10:56;0.47;;;0.43;;
27025;SDS011;14565;48.626;8.978;2023-05-10T08:13:22;0.55;;;0.50;;
27025;SDS011;14565;48.626;8.978;2023-05-10T08:15:48;1.27;;;0.50;;
27025;SDS011;14565;48.626;8.978;2023-05-10T08:18:18;2.00;;;0.60;;
27025;SDS011;14565;48.626;8.978;2023-05-10T08:20:44;0.70;;;0.47;;
27025;SDS011;14565;48.626;8.978;2023-05-10T08:23:12;2.10;;;0.50;;
27025;SDS011;14565;48.626;8.978;2023-05-10T08:28:06;2.22;;;1.17;;
27025;SDS011;14565;48.626;8.978;2023-05-10T08:32:57;2.92;;;0.60;;
27025;SDS011;14565;48.626;8.978;2023-05-10T08:35:23;1.92;;;0.60;;
27025;SDS011;14565;48.626;8.978;2023-05-10T08:37:50;1.90;;;0.60;;
27025;SDS011;14565;48.626;8.978;2023-05-10T08:40:16;0.98;;;0.50;;
27025;SDS011;14565;48.626;8.978;2023-05-10T08:42:46;3.30;;;0.77;;
27025;SDS011;14565;48.626;8.978;2023-05-10T08:45:17;1.25;;;0.50;;
27025;SDS011;14565;48.626;8.978;2023-05-10T08:47:44;1.58;;;0.82;;
27025;SDS011;14565;48.626;8.978;2023-05-10T08:50:11;2.13;;;0.50;;
27025;SDS011;14565;48.626;8.978;2023-05-10T08:52:37;3.58;;;0.70;;
27025;SDS011;14565;48.626;8.978;2023-05-10T08:55:05;4.97;;;0.50;;
27025;SDS011;14565;48.626;8.978;2023-05-10T08:57:31;1.40;;;0.40;;
27025;SDS011;14565;48.626;8.978;2023-05-10T08:59:57;1.08;;;0.50;;
27025;SDS011;14565;48.626;8.978;2023-05-10T09:02:24;0.57;;;0.40;;
27025;SDS011;14565;48.626;8.978;2023-05-10T09:04:50;3.20;;;0.50;;
27025;SDS011;14565;48.626;8.978;2023-05-10T09:07:16;0.43;;;0.40;;
27025;SDS011;14565;48.626;8.978;2023-05-10T09:09:42;3.65;;;0.50;;
27025;SDS011;14565;48.626;8.978;2023-05-10T09:12:12;1.00;;;0.50;;
27025;SDS011;14565;48.626;8.978;2023-05-10T09:14:40;0.40;;;0.40;;
27025;SDS011;14565;48.626;8.978;2023-05-10T09:17:09;0.55;;;0.40;;
27025;SDS011;14565;48.626;8.978;2023-05-10T09:19:35;0.82;;;0.50;;
27025;SDS011;14565;48.626;8.978;2023-05-10T09:22:01;1.17;;;0.70;;
27025;SDS011;14565;48.626;8.978;2023-05-10T09:24:29;2.65;;;0.60;;
27025;SDS011;14565;48.626;8.978;2023-05-10T09:26:56;0.77;;;0.60;;
27025;SDS011;14565;48.626;8.978;2023-05-10T09:29:23;2.05;;;0.40;;
27025;SDS011;14565;48.626;8.978;2023-05-10T09:31:49;2.40;;;0.50;;
27025;SDS011;14565;48.626;8.978;2023-05-10T09:36:51;2.25;;;0.50;;
27025;SDS011;14565;48.626;8.978;2023-05-10T09:39:21;0.40;;;0.40;;
27025;SDS011;14565;48.626;8.978;2023-05-10T09:41:55;0.45;;;0.40;;
27025;SDS011;14565;48.626;8.978;2023-05-10T09:44:25;3.17;;;0.40;;
27025;SDS011;14565;48.626;8.978;2023-05-10T09:46:51;1.65;;;0.50;;
27025;SDS011;14565;48.626;8.978;2023-05-10T09:49:18;0.90;;;0.50;;
27025;SDS011;14565;48.626;8.978;2023-05-10T09:51:44;0.50;;;0.50;;
27025;SDS011;14565;48.626;8.978;2023-05-10T09:54:14;1.67;;;0.50;;
27025;SDS011;14565;48.626;8.978;2023-05-10T09:56:41;1.10;;;0.57;;
27025;SDS011;14565;48.626;8.978;2023-05-10T09:59:10;1.15;;;0.50;;
27025;SDS011;14565;48.626;8.978;2023-05-10T10:01:37;1.40;;;0.60;;
27025;SDS011;14565;48.626;8.978;2023-05-10T10:04:08;1.13;;;0.40;;
27025;SDS011;14565;48.626;8.978;2023-05-10T10:06:38;0.40;;;0.40;;
27025;SDS011;14565;48.626;8.978;2023-05-10T10:09:08;0.80;;;0.40;;
27025;SDS011;14565;48.626;8.978;2023-05-10T10:11:35;1.45;;;0.57;;
27025;SDS011;14565;48.626;8.978;2023-05-10T10:14:01;1.73;;;0.70;;
27025;SDS011;14565;48.626;8.978;2023-05-10T10:16:31;2.47;;;0.50;;
27025;SDS011;14565;48.626;8.978;2023-05-10T10:18:57;1.42;;;0.50;;
27025;SDS011;14565;48.626;8.978;2023-05-10T10:21:23;1.08;;;0.40;;
27025;SDS011;14565;48.626;8.978;2023-05-10T10:23:50;0.30;;;0.30;;
27025;SDS011;14565;48.626;8.978;2023-05-10T10:26:17;0.40;;;0.40;;
27025;SDS011;14565;48.626;8.978;2023-05-10T10:35:05;1.27;;;0.50;;
27025;SDS011;14565;48.626;8.978;2023-05-10T10:37:46;1.48;;;0.45;;
27025;SDS011;14565;48.626;8.978;2023-05-10T10:40:22;3.03;;;0.40;;
27025;SDS011;14565;48.626;8.978;2023-05-10T10:42:53;2.20;;;0.40;;
27025;SDS011;14565;48.626;8.978;2023-05-10T10:45:19;1.75;;;0.40;;
27025;SDS011;14565;48.626;8.978;2023-05-10T10:47:46;2.30;;;0.50;;
27025;SDS011;14565;48.626;8.978;2023-05-10T10:50:12;1.75;;;0.50;;
27025;SDS011;14565;48.626;8.978;2023-05-10T10:52:40;0.90;;;0.60;;
27025;SDS011;14565;48.626;8.978;2023-05-10T10:55:13;1.48;;;0.57;;
27025;SDS011;14565;48.626;8.978;2023-05-10T11:00:47;2.38;;;0.52;;
27025;SDS011;14565;48.626;8.978;2023-05-10T11:08:14;1.40;;;0.52;;
27025;SDS011;14565;48.626;8.978;2023-05-10T11:10:52;0.98;;;0.50;;
27025;SDS011;14565;48.626;8.978;2023-05-10T11:13:29;2.57;;;0.50;;
27025;SDS011;14565;48.626;8.978;2023-05-10T11:15:56;1.58;;;0.65;;
27025;SDS011;14565;48.626;8.978;2023-05-10T11:20:56;0.90;;;0.50;;
27025;SDS011;14565;48.626;8.978;2023-05-10T11:24:12;3.17;;;0.82;;
27025;SDS011;14565;48.626;8.978;2023-05-10T11:26:20;2.05;;;0.88;;
27025;SDS011;14565;48.626;8.978;2023-05-10T11:28:50;7.93;;;1.85;;
27025;SDS011;14565;48.626;8.978;2023-05-10T11:31:16;4.28;;;1.33;;
27025;SDS011;14565;48.626;8.978;2023-05-10T11:33:43;7.00;;;1.85;;
27025;SDS011;14565;48.626;8.978;2023-05-10T11:36:16;11.73;;;2.42;;
27025;SDS011;14565;48.626;8.978;2023-05-10T11:38:46;7.10;;;1.45;;
27025;SDS011;14565;48.626;8.978;2023-05-10T11:41:13;2.83;;;0.50;;
27025;SDS011;14565;48.626;8.978;2023-05-10T11:43:45;1.50;;;0.70;;
27025;SDS011;14565;48.626;8.978;2023-05-10T11:46:14;1.75;;;0.50;;
27025;SDS011;14565;48.626;8.978;2023-05-10T11:48:40;1.80;;;0.60;;
27025;SDS011;14565;48.626;8.978;2023-05-10T11:51:07;2.75;;;0.50;;
27025;SDS011;14565;48.626;8.978;2023-05-10T11:53:41;1.33;;;0.50;;
27025;SDS011;14565;48.626;8.978;2023-05-10T11:56:10;0.55;;;0.50;;
27025;SDS011;14565;48.626;8.978;2023-05-10T11:58:37;3.38;;;0.70;;
27025;SDS011;14565;48.626;8.978;2023-05-10T12:01:04;3.25;;;0.60;;
27025;SDS011;14565;48.626;8.978;2023-05-10T12:03:30;3.58;;;0.73;;
27025;SDS011;14565;48.626;8.978;2023-05-10T12:05:56;1.83;;;0.75;;
27025;SDS011;14565;48.626;8.978;2023-05-10T12:08:23;2.22;;;0.50;;
27025;SDS011;14565;48.626;8.978;2023-05-10T12:13:17;1.73;;;0.60;;
27025;SDS011;14565;48.626;8.978;2023-05-10T12:15:43;1.92;;;0.75;;
27025;SDS011;14565;48.626;8.978;2023-05-10T12:18:10;4.75;;;0.52;;
27025;SDS011;14565;48.626;8.978;2023-05-10T12:20:37;3.43;;;0.60;;
27025;SDS011;14565;48.626;8.978;2023-05-10T12:23:03;3.10;;;0.70;;
27025;SDS011;14565;48.626;8.978;2023-05-10T12:25:34;5.25;;;0.80;;
27025;SDS011;14565;48.626;8.978;2023-05-10T12:28:03;2.20;;;0.80;;
27025;SDS011;14565;48.626;8.978;2023-05-10T12:30:31;2.88;;;0.70;;
27025;SDS011;14565;48.626;8.978;2023-05-10T12:33:02;9.40;;;0.70;;
27025;SDS011;14565;48.626;8.978;2023-05-10T12:35:32;3.97;;;0.70;;
27025;SDS011;14565;48.626;8.978;2023-05-10T12:37:58;4.07;;;0.90;;
27025;SDS011;14565;48.626;8.978;2023-05-10T12:40:24;2.83;;;0.55;;
27025;SDS011;14565;48.626;8.978;2023-05-10T12:42:50;4.03;;;0.70;;
27025;SDS011;14565;48.626;8.978;2023-05-10T12:45:17;4.32;;;0.80;;
27025;SDS011;14565;48.626;8.978;2023-05-10T12:47:43;3.47;;;0.88;;
27025;SDS011;14565;48.626;8.978;2023-05-10T12:50:09;1.38;;;0.68;;
27025;SDS011;14565;48.626;8.978;2023-05-10T12:52:35;2.58;;;0.80;;
27025;SDS011;14565;48.626;8.978;2023-05-10T12:55:02;5.15;;;0.65;;
27025;SDS011;14565;48.626;8.978;2023-05-10T12:57:28;3.60;;;0.70;;
27025;SDS011;14565;48.626;8.978;2023-05-10T12:59:53;2.75;;;0.90;;
27025;SDS011;14565;48.626;8.978;2023-05-10T13:02:19;2.05;;;0.80;;
27025;SDS011;14565;48.626;8.978;2023-05-10T13:04:46;2.85;;;0.80;;
27025;SDS011;14565;48.626;8.978;2023-05-10T13:07:12;4.57;;;0.90;;
27025;SDS011;14565;48.626;8.978;2023-05-10T13:09:38;3.15;;;0.80;;
27025;SDS011;14565;48.626;8.978;2023-05-10T13:12:04;2.10;;;0.68;;
27025;SDS011;14565;48.626;8.978;2023-05-10T13:14:30;2.15;;;0.70;;
27025;SDS011;14565;48.626;8.978;2023-05-10T13:16:56;2.05;;;0.60;;
27025;SDS011;14565;48.626;8.978;2023-05-10T13:19:22;2.28;;;0.88;;
27025;SDS011;14565;48.626;8.978;2023-05-10T13:21:47;5.15;;;1.00;;
27025;SDS011;14565;48.626;8.978;2023-05-10T13:24:13;1.98;;;0.68;;
27025;SDS011;14565;48.626;8.978;2023-05-10T13:26:39;1.63;;;0.77;;
27025;SDS011;14565;48.626;8.978;2023-05-10T13:29:08;2.80;;;0.90;;
27025;SDS011;14565;48.626;8.978;2023-05-10T13:31:34;4.82;;;0.90;;
27025;SDS011;14565;48.626;8.978;2023-05-10T13:34:01;1.60;;;0.70;;
27025;SDS011;14565;48.626;8.978;2023-05-10T13:36:27;2.17;;;0.80;;
27025;SDS011;14565;48.626;8.978;2023-05-10T13:38:53;1.92;;;0.80;;
27025;SDS011;14565;48.626;8.978;2023-05-10T13:41:18;3.28;;;0.90;;
27025;SDS011;14565;48.626;8.978;2023-05-10T13:43:44;3.25;;;0.80;;
27025;SDS011;14565;48.626;8.978;2023-05-10T13:46:10;2.15;;;0.63;;
27025;SDS011;14565;48.626;8.978;2023-05-10T13:48:35;2.53;;;0.90;;
27025;SDS011;14565;48.626;8.978;2023-05-10T13:51:04;2.60;;;0.57;;
27025;SDS011;14565;48.626;8.978;2023-05-10T13:53:30;0.73;;;0.70;;
27025;SDS011;14565;48.626;8.978;2023-05-10T13:55:56;1.55;;;0.60;;
27025;SDS011;14565;48.626;8.978;2023-05-10T13:58:22;6.32;;;0.70;;
27025;SDS011;14565;48.626;8.978;2023-05-10T14:00:48;1.50;;;0.50;;
27025;SDS011;14565;48.626;8.978;2023-05-10T14:03:14;3.00;;;0.65;;
27025;SDS011;14565;48.626;8.978;2023-05-10T14:05:39;5.13;;;0.70;;
27025;SDS011;14565;48.626;8.978;2023-05-10T14:08:05;2.88;;;0.70;;
27025;SDS011;14565;48.626;8.978;2023-05-10T14:10:31;2.40;;;0.70;;
27025;SDS011;14565;48.626;8.978;2023-05-10T14:12:56;2.78;;;0.80;;
27025;SDS011;14565;48.626;8.978;2023-05-10T14:15:22;1.42;;;0.50;;
27025;SDS011;14565;48.626;8.978;2023-05-10T14:17:48;1.92;;;0.63;;
27025;SDS011;14565;48.626;8.978;2023-05-10T14:20:13;3.00;;;0.70;;
27025;SDS011;14565;48.626;8.978;2023-05-10T14:22:39;0.93;;;0.50;;
27025;SDS011;14565;48.626;8.978;2023-05-10T14:25:05;1.35;;;0.68;;
27025;SDS011;14565;48.626;8.978;2023-05-10T14:27:31;2.67;;;0.63;;
27025;SDS011;14565;48.626;8.978;2023-05-10T14:29:57;2.83;;;0.50;;
27025;SDS011;14565;48.626;8.978;2023-05-10T14:32:23;2.78;;;0.63;;
27025;SDS011;14565;48.626;8.978;2023-05-10T14:34:48;1.85;;;0.65;;
27025;SDS011;14565;48.626;8.978;2023-05-10T14:37:14;1.75;;;0.60;;
27025;SDS011;14565;48.626;8.978;2023-05-10T14:39:40;6.63;;;0.73;;
27025;SDS011;14565;48.626;8.978;2023-05-10T14:42:07;1.30;;;0.60;;
27025;SDS011;14565;48.626;8.978;2023-05-10T14:44:32;1.30;;;0.50;;
27025;SDS011;14565;48.626;8.978;2023-05-10T14:46:58;1.40;;;0.50;;
27025;SDS011;14565;48.626;8.978;2023-05-10T14:49:24;1.85;;;0.50;;
27025;SDS011;14565;48.626;8.978;2023-05-10T14:51:51;5.93;;;0.60;;
27025;SDS011;14565;48.626;8.978;2023-05-10T14:54:17;4.00;;;1.02;;
27025;SDS011;14565;48.626;8.978;2023-05-10T14:56:42;2.83;;;0.60;;
27025;SDS011;14565;48.626;8.978;2023-05-10T14:59:08;1.05;;;0.47;;
27025;SDS011;14565;48.626;8.978;2023-05-10T15:01:34;2.17;;;0.65;;
27025;SDS011;14565;48.626;8.978;2023-05-10T15:04:02;3.00;;;1.33;;
27025;SDS011;14565;48.626;8.978;2023-05-10T15:06:32;2.00;;;1.33;;
27025;SDS011;14565;48.626;8.978;2023-05-10T15:08:59;4.78;;;0.70;;
27025;SDS011;14565;48.626;8.978;2023-05-10T15:11:25;2.00;;;1.00;;
27025;SDS011;14565;48.626;8.978;2023-05-10T15:13:51;3.28;;;0.50;;
27025;SDS011;14565;48.626;8.978;2023-05-10T15:16:17;2.90;;;0.50;;
27025;SDS011;14565;48.626;8.978;2023-05-10T15:18:42;0.82;;;0.50;;
27025;SDS011;14565;48.626;8.978;2023-05-10T15:21:08;0.90;;;0.50;;
27025;SDS011;14565;48.626;8.978;2023-05-10T15:23:34;3.90;;;0.60;;
27025;SDS011;14565;48.626;8.978;2023-05-10T15:26:00;2.35;;;0.43;;
27025;SDS011;14565;48.626;8.978;2023-05-10T15:28:27;1.03;;;0.70;;
27025;SDS011;14565;48.626;8.978;2023-05-10T15:30:53;0.57;;;0.50;;
27025;SDS011;14565;48.626;8.978;2023-05-10T15:33:19;1.20;;;0.82;;
27025;SDS011;14565;48.626;8.978;2023-05-10T15:35:45;2.13;;;0.50;;
27025;SDS011;14565;48.626;8.978;2023-05-10T15:38:10;1.95;;;0.50;;
27025;SDS011;14565;48.626;8.978;2023-05-10T15:40:36;1.08;;;0.57;;
27025;SDS011;14565;48.626;8.978;2023-05-10T15:43:02;3.20;;;0.60;;
27025;SDS011;14565;48.626;8.978;2023-05-10T15:45:27;1.58;;;0.50;;
27025;SDS011;14565;48.626;8.978;2023-05-10T15:47:53;4.75;;;0.68;;